Time;durP1;ratioP1;P1;durP2;ratioP2;P2;SDS_P1;SDS_P2;PMS_P1;PMS_P2;Temp;Humidity;BMP_temperature;BMP_pressure;BME280_temperature;BME280_humidity;BME280_pressure;Samples;Min_cycle;Max_cycle;Signal;HPM_P1;HPM_P2
2022/04/15 00:01:22;;;;;;;65.93;32.88;;;;;;;;;;4956512;29;20030;-68
2022/04/15 00:03:48;;;;;;;73.25;33.95;;;;;;;;;;4956699;29;20035;-70
2022/04/15 00:06:15;;;;;;;68.47;31.90;;;;;;;;;;4939488;29;20357;-68
2022/04/15 00:08:41;;;;;;;71.75;32.22;;;;;;;;;;4939064;29;20035;-69
2022/04/15 00:11:07;;;;;;;64.35;32.63;;;;;;;;;;4956333;29;20059;-68
2022/04/15 00:13:35;;;;;;;65.95;33.00;;;;;;;;;;4956206;29;20574;-68
2022/04/15 00:16:02;;;;;;;65.60;31.80;;;;;;;;;;4956267;29;20027;-68
2022/04/15 00:18:28;;;;;;;63.83;33.35;;;;;;;;;;4956068;29;20031;-68
2022/04/15 00:20:55;;;;;;;66.20;33.63;;;;;;;;;;4956106;29;20099;-68
2022/04/15 00:23:22;;;;;;;65.32;33.47;;;;;;;;;;4938860;29;20028;-69
2022/04/15 00:25:52;;;;;;;62.35;32.35;;;;;;;;;;4956038;29;20051;-68
2022/04/15 00:28:18;;;;;;;67.30;31.48;;;;;;;;;;4955986;29;20027;-68
2022/04/15 00:30:44;;;;;;;60.28;31.33;;;;;;;;;;4955976;29;20023;-67
2022/04/15 00:33:11;;;;;;;65.32;31.50;;;;;;;;;;4955871;29;20031;-68
2022/04/15 00:35:37;;;;;;;60.60;32.03;;;;;;;;;;4955909;29;20061;-68
2022/04/15 00:38:04;;;;;;;68.82;32.53;;;;;;;;;;4938333;29;20396;-68
2022/04/15 00:40:30;;;;;;;62.60;33.13;;;;;;;;;;4955646;29;20123;-71
2022/04/15 00:42:57;;;;;;;63.15;30.05;;;;;;;;;;4955724;29;20038;-69
2022/04/15 00:45:24;;;;;;;59.10;30.58;;;;;;;;;;4938501;29;20082;-69
2022/04/15 00:47:54;;;;;;;50.08;28.23;;;;;;;;;;4955361;29;20058;-65
2022/04/15 00:50:21;;;;;;;50.47;27.23;;;;;;;;;;4955578;29;20495;-65
2022/04/15 00:52:49;;;;;;;72.82;28.10;;;;;;;;;;4938361;29;20388;-65
2022/04/15 00:55:15;;;;;;;51.90;26.40;;;;;;;;;;4955536;29;20042;-66
2022/04/15 00:57:43;;;;;;;56.35;26.92;;;;;;;;;;4938047;29;20584;-66
2022/04/15 01:00:10;;;;;;;52.35;25.95;;;;;;;;;;4955461;29;20130;-65
2022/04/15 01:02:37;;;;;;;52.22;26.02;;;;;;;;;;4955416;29;20035;-66
2022/04/15 01:05:05;;;;;;;50.70;26.63;;;;;;;;;;4938327;29;20471;-66
2022/04/15 01:07:36;;;;;;;58.15;28.25;;;;;;;;;;4955626;29;20456;-66
2022/04/15 01:10:05;;;;;;;59.65;28.73;;;;;;;;;;4955365;29;20042;-67
2022/04/15 01:12:32;;;;;;;53.97;26.48;;;;;;;;;;4938014;29;20106;-67
2022/04/15 01:14:59;;;;;;;53.60;26.55;;;;;;;;;;4955326;29;20023;-65
2022/04/15 01:17:26;;;;;;;57.70;25.70;;;;;;;;;;4955408;29;20109;-65
2022/04/15 01:19:52;;;;;;;52.00;27.45;;;;;;;;;;4955100;29;20038;-64
2022/04/15 01:22:18;;;;;;;46.25;25.50;;;;;;;;;;4955198;29;20041;-65
2022/04/15 01:24:44;;;;;;;56.63;26.98;;;;;;;;;;4955153;29;20032;-65
2022/04/15 01:27:10;;;;;;;54.60;27.25;;;;;;;;;;4954687;29;20543;-65
2022/04/15 01:29:37;;;;;;;47.40;25.17;;;;;;;;;;4937796;29;20035;-65
2022/04/15 01:32:05;;;;;;;50.75;24.95;;;;;;;;;;4955036;29;20082;-66
2022/04/15 01:34:31;;;;;;;51.15;24.55;;;;;;;;;;4937803;29;20028;-66
2022/04/15 01:36:59;;;;;;;53.15;25.58;;;;;;;;;;4937739;29;20037;-66
2022/04/15 01:39:26;;;;;;;49.13;25.48;;;;;;;;;;4954857;29;20031;-65
2022/04/15 01:41:52;;;;;;;51.22;25.58;;;;;;;;;;4955197;29;20027;-65
2022/04/15 01:44:18;;;;;;;47.13;24.83;;;;;;;;;;4955017;29;20023;-66
2022/04/15 01:46:45;;;;;;;44.20;24.50;;;;;;;;;;4954761;29;20038;-63
2022/04/15 01:49:11;;;;;;;41.53;22.63;;;;;;;;;;4954675;28;20112;-64
2022/04/15 01:51:37;;;;;;;47.53;24.02;;;;;;;;;;4958865;29;20029;-64
2022/04/15 01:54:04;;;;;;;47.00;23.15;;;;;;;;;;4958748;29;20345;-67
2022/04/15 01:56:30;;;;;;;45.20;24.20;;;;;;;;;;4941562;29;20027;-70
2022/04/15 01:58:56;;;;;;;44.28;23.65;;;;;;;;;;4958544;29;20051;-71
2022/04/15 02:01:23;;;;;;;53.60;24.38;;;;;;;;;;4941495;29;20023;-71
2022/04/15 02:03:49;;;;;;;48.40;24.60;;;;;;;;;;4941390;29;20031;-70
2022/04/15 02:06:15;;;;;;;40.90;24.52;;;;;;;;;;4958669;29;20100;-71
2022/04/15 02:08:41;;;;;;;45.13;24.88;;;;;;;;;;4941287;29;20031;-71
2022/04/15 02:11:07;;;;;;;39.03;23.45;;;;;;;;;;4958544;29;20588;-67
2022/04/15 02:13:34;;;;;;;47.05;24.33;;;;;;;;;;4941280;29;20031;-68
2022/04/15 02:16:00;;;;;;;40.65;23.13;;;;;;;;;;4958517;29;20110;-68
2022/04/15 02:18:26;;;;;;;50.70;25.10;;;;;;;;;;4958383;29;20023;-67
2022/04/15 02:20:53;;;;;;;43.10;23.75;;;;;;;;;;4958346;29;20043;-67
2022/04/15 02:23:19;;;;;;;46.38;22.80;;;;;;;;;;4941062;29;20031;-67
2022/04/15 02:25:45;;;;;;;44.97;24.52;;;;;;;;;;4941080;29;20034;-66
2022/04/15 02:28:12;;;;;;;48.28;22.80;;;;;;;;;;4958233;29;20065;-66
2022/04/15 02:30:38;;;;;;;52.80;23.33;;;;;;;;;;4940951;29;20035;-67
2022/04/15 02:33:04;;;;;;;44.60;23.17;;;;;;;;;;4940923;29;20460;-68
2022/04/15 02:35:30;;;;;;;47.55;23.25;;;;;;;;;;4958387;29;20027;-68
2022/04/15 02:37:56;;;;;;;59.33;24.25;;;;;;;;;;4958071;29;20027;-66
2022/04/15 02:40:22;;;;;;;53.88;24.35;;;;;;;;;;4957881;29;20035;-66
2022/04/15 02:42:49;;;;;;;52.10;22.92;;;;;;;;;;4957966;29;20122;-66
2022/04/15 02:45:15;;;;;;;52.88;23.75;;;;;;;;;;4957647;29;20042;-68
2022/04/15 02:47:41;;;;;;;43.97;23.80;;;;;;;;;;4957851;29;20027;-67
2022/04/15 02:50:07;;;;;;;40.55;21.83;;;;;;;;;;4940565;29;20031;-66
2022/04/15 02:52:35;;;;;;;43.95;21.63;;;;;;;;;;4957795;29;20035;-67
2022/04/15 02:55:01;;;;;;;48.40;23.30;;;;;;;;;;4940533;29;20110;-67
2022/04/15 02:57:27;;;;;;;41.97;21.55;;;;;;;;;;4957439;29;20535;-67
2022/04/15 02:59:53;;;;;;;45.83;20.25;;;;;;;;;;4940322;29;20083;-67
2022/04/15 03:02:20;;;;;;;42.63;19.13;;;;;;;;;;4957754;28;20390;-69
2022/04/15 03:04:46;;;;;;;57.95;19.65;;;;;;;;;;4940373;29;20118;-69
2022/04/15 03:07:12;;;;;;;39.33;19.40;;;;;;;;;;4957533;29;20038;-69
2022/04/15 03:09:38;;;;;;;39.78;16.95;;;;;;;;;;4957093;29;20540;-68
2022/04/15 03:12:05;;;;;;;41.35;21.83;;;;;;;;;;4957399;29;20372;-69
2022/04/15 03:14:31;;;;;;;41.78;22.75;;;;;;;;;;4940233;29;20126;-69
2022/04/15 03:16:57;;;;;;;37.85;19.85;;;;;;;;;;4940136;29;20082;-68
2022/04/15 03:19:23;;;;;;;40.97;17.75;;;;;;;;;;4957261;29;20039;-69
2022/04/15 03:21:51;;;;;;;40.30;18.25;;;;;;;;;;4940047;29;20067;-68
2022/04/15 03:24:17;;;;;;;43.78;18.75;;;;;;;;;;4957230;29;20057;-66
2022/04/15 03:26:43;;;;;;;43.55;19.73;;;;;;;;;;4957522;29;20037;-67
2022/04/15 03:29:10;;;;;;;40.70;19.95;;;;;;;;;;4957133;29;20114;-67
2022/04/15 03:31:43;;;;;;;46.22;20.92;;;;;;;;;;4939847;29;20027;-68
2022/04/15 03:34:09;;;;;;;43.50;21.85;;;;;;;;;;4956783;29;20031;-69
2022/04/15 03:36:35;;;;;;;43.22;20.17;;;;;;;;;;4957079;29;20150;-68
2022/04/15 03:39:01;;;;;;;43.72;20.63;;;;;;;;;;4957142;29;20035;-68
2022/04/15 03:41:28;;;;;;;42.03;20.77;;;;;;;;;;4956922;29;20035;-67
2022/04/15 03:43:54;;;;;;;48.50;20.33;;;;;;;;;;4939606;29;20123;-67
2022/04/15 03:46:21;;;;;;;49.22;21.00;;;;;;;;;;4939607;29;20034;-68
2022/04/15 03:48:47;;;;;;;40.15;19.13;;;;;;;;;;4939516;29;20034;-69
2022/04/15 03:51:13;;;;;;;52.08;19.95;;;;;;;;;;4939543;29;20097;-69
2022/04/15 03:53:39;;;;;;;48.13;19.50;;;;;;;;;;4956959;29;20030;-69
2022/04/15 03:56:07;;;;;;;56.63;21.20;;;;;;;;;;4956731;29;20059;-70
2022/04/15 03:58:34;;;;;;;51.80;21.95;;;;;;;;;;4938761;29;20066;-70
2022/04/15 04:01:00;;;;;;;52.42;21.27;;;;;;;;;;4956629;29;20048;-70
2022/04/15 04:03:26;;;;;;;53.85;21.27;;;;;;;;;;4956240;29;20035;-69
2022/04/15 04:05:53;;;;;;;59.53;21.05;;;;;;;;;;4956611;29;20106;-69
2022/04/15 04:08:19;;;;;;;57.13;21.70;;;;;;;;;;4956458;29;20031;-69
2022/04/15 04:10:45;;;;;;;55.20;22.65;;;;;;;;;;4939214;29;20478;-68
2022/04/15 04:13:11;;;;;;;48.60;19.98;;;;;;;;;;4938617;29;20045;-67
2022/04/15 04:15:37;;;;;;;36.92;20.15;;;;;;;;;;4956369;29;20077;-70
2022/04/15 04:18:04;;;;;;;58.25;27.25;;;;;;;;;;4955995;29;20027;-69
2022/04/15 04:20:30;;;;;;;52.83;24.85;;;;;;;;;;4938574;29;20035;-69
2022/04/15 04:22:57;;;;;;;59.30;24.45;;;;;;;;;;4956161;29;20468;-71
2022/04/15 04:25:23;;;;;;;56.80;23.00;;;;;;;;;;4938933;29;20023;-72
2022/04/15 04:27:49;;;;;;;52.92;22.50;;;;;;;;;;4956083;29;20027;-68
2022/04/15 04:30:16;;;;;;;49.42;20.98;;;;;;;;;;4956030;29;20062;-69
2022/04/15 04:32:49;;;;;;;58.05;20.42;;;;;;;;;;4938811;29;20039;-67
2022/04/15 04:35:16;;;;;;;53.72;22.05;;;;;;;;;;4938718;29;20030;-68
2022/04/15 04:37:43;;;;;;;48.72;21.40;;;;;;;;;;4956011;29;20035;-68
2022/04/15 04:40:10;;;;;;;44.47;22.58;;;;;;;;;;4955823;29;20031;-69
2022/04/15 04:42:36;;;;;;;44.20;21.15;;;;;;;;;;4955564;29;20423;-68
2022/04/15 04:45:02;;;;;;;47.53;23.33;;;;;;;;;;4955772;29;20063;-67
2022/04/15 04:47:29;;;;;;;53.00;21.65;;;;;;;;;;4938465;29;20122;-68
2022/04/15 04:49:56;;;;;;;45.55;20.13;;;;;;;;;;4955726;29;20074;-68
2022/04/15 04:52:25;;;;;;;43.55;20.40;;;;;;;;;;4955703;29;20023;-68
2022/04/15 04:54:51;;;;;;;43.60;20.45;;;;;;;;;;4955645;29;20070;-68
2022/04/15 04:57:17;;;;;;;57.20;21.42;;;;;;;;;;4955633;29;20110;-67
2022/04/15 04:59:43;;;;;;;56.65;21.58;;;;;;;;;;4955509;29;20050;-68
2022/04/15 05:02:12;;;;;;;41.78;21.25;;;;;;;;;;4955414;29;20062;-67
2022/04/15 05:04:40;;;;;;;47.60;20.25;;;;;;;;;;4955523;29;20130;-67
2022/04/15 05:07:06;;;;;;;43.92;21.58;;;;;;;;;;4938179;29;20023;-66
2022/04/15 05:09:32;;;;;;;42.25;20.05;;;;;;;;;;4955347;29;20027;-67
2022/04/15 05:11:59;;;;;;;39.25;22.02;;;;;;;;;;4955250;29;20050;-68
2022/04/15 05:14:25;;;;;;;41.38;21.60;;;;;;;;;;4955215;29;20031;-69
2022/04/15 05:16:51;;;;;;;46.00;21.33;;;;;;;;;;4938075;29;20035;-69
2022/04/15 05:19:17;;;;;;;45.13;21.83;;;;;;;;;;4955209;29;20050;-69
2022/04/15 05:21:43;;;;;;;46.90;22.95;;;;;;;;;;4955140;29;20180;-68
2022/04/15 05:24:10;;;;;;;61.35;24.90;;;;;;;;;;4954173;28;20050;-69
2022/04/15 05:26:37;;;;;;;51.95;24.00;;;;;;;;;;4955170;29;20035;-66
2022/04/15 05:29:04;;;;;;;56.33;22.80;;;;;;;;;;4937969;29;20028;-65
2022/04/15 05:31:30;;;;;;;59.00;25.85;;;;;;;;;;4955041;29;20433;-66
2022/04/15 05:33:56;;;;;;;51.65;23.92;;;;;;;;;;4954987;29;20122;-64
2022/04/15 05:36:22;;;;;;;49.58;25.85;;;;;;;;;;4955246;29;20035;-67
2022/04/15 05:38:49;;;;;;;49.45;24.85;;;;;;;;;;4955007;29;20028;-68
2022/04/15 05:41:15;;;;;;;47.90;25.90;;;;;;;;;;4954681;29;20045;-67
2022/04/15 05:43:42;;;;;;;49.35;26.30;;;;;;;;;;4954863;29;20078;-67
2022/04/15 05:46:09;;;;;;;59.05;26.75;;;;;;;;;;4937591;29;20035;-67
2022/04/15 05:48:35;;;;;;;60.60;29.77;;;;;;;;;;4937477;29;20038;-69
2022/04/15 05:51:01;;;;;;;59.92;33.25;;;;;;;;;;4955087;29;20534;-67
2022/04/15 05:53:27;;;;;;;64.00;33.30;;;;;;;;;;4954806;29;20071;-67
2022/04/15 05:55:53;;;;;;;90.25;40.83;;;;;;;;;;4954653;29;20034;-68
2022/04/15 05:58:20;;;;;;;90.32;37.72;;;;;;;;;;4942881;29;20075;-63
2022/04/15 06:00:46;;;;;;;87.63;37.05;;;;;;;;;;4933616;29;20130;-63
2022/04/15 06:03:12;;;;;;;67.43;36.13;;;;;;;;;;4937469;29;20453;-65
2022/04/15 06:05:39;;;;;;;65.57;35.17;;;;;;;;;;4954687;29;20110;-64
2022/04/15 06:08:05;;;;;;;57.45;32.20;;;;;;;;;;4954696;29;20023;-65
2022/04/15 06:10:31;;;;;;;56.63;35.05;;;;;;;;;;4954863;29;20057;-65
2022/04/15 06:13:04;;;;;;;65.35;33.80;;;;;;;;;;4945348;29;20066;-66
2022/04/15 06:15:31;;;;;;;62.40;31.90;;;;;;;;;;4942366;29;20453;-63
2022/04/15 06:18:01;;;;;;;70.00;32.42;;;;;;;;;;4943122;29;20023;-63
2022/04/15 06:20:30;;;;;;;55.00;31.75;;;;;;;;;;4940688;29;20468;-63
2022/04/15 06:22:57;;;;;;;60.00;31.23;;;;;;;;;;4943073;29;20023;-62
2022/04/15 06:25:23;;;;;;;57.72;31.10;;;;;;;;;;4944615;29;20094;-63
2022/04/15 06:27:54;;;;;;;50.17;30.55;;;;;;;;;;4942981;29;20436;-64
2022/04/15 06:30:21;;;;;;;50.20;31.70;;;;;;;;;;4945119;29;20040;-64
2022/04/15 06:32:48;;;;;;;55.45;32.10;;;;;;;;;;4928593;29;20514;-64
2022/04/15 06:35:14;;;;;;;55.90;32.55;;;;;;;;;;4925555;29;20032;-64
2022/04/15 06:37:41;;;;;;;63.55;33.20;;;;;;;;;;4945543;29;20032;-64
2022/04/15 06:40:07;;;;;;;55.70;32.20;;;;;;;;;;4921683;29;20046;-66
2022/04/15 06:42:34;;;;;;;56.83;33.67;;;;;;;;;;4938877;29;20094;-65
2022/04/15 06:45:01;;;;;;;52.88;31.77;;;;;;;;;;4938732;29;20483;-66
2022/04/15 06:47:27;;;;;;;65.97;31.42;;;;;;;;;;4938511;29;20046;-65
2022/04/15 06:49:53;;;;;;;59.22;31.80;;;;;;;;;;4938682;29;20119;-66
2022/04/15 06:52:19;;;;;;;62.55;33.70;;;;;;;;;;4938917;29;20036;-65
2022/04/15 06:54:45;;;;;;;56.53;31.02;;;;;;;;;;4925950;29;20123;-66
2022/04/15 06:57:11;;;;;;;53.65;32.00;;;;;;;;;;4940889;29;20032;-67
2022/04/15 06:59:38;;;;;;;62.22;35.17;;;;;;;;;;4938444;29;20484;-65
2022/04/15 07:02:05;;;;;;;61.75;32.50;;;;;;;;;;4921319;29;20080;-66
2022/04/15 07:04:32;;;;;;;53.38;28.40;;;;;;;;;;4937425;29;20031;-68
2022/04/15 07:06:58;;;;;;;54.13;28.33;;;;;;;;;;4920510;29;20102;-67
2022/04/15 07:09:24;;;;;;;48.50;26.85;;;;;;;;;;4938316;29;20071;-64
2022/04/15 07:11:51;;;;;;;45.20;28.13;;;;;;;;;;4938239;29;20111;-66
2022/04/15 07:14:17;;;;;;;47.00;27.05;;;;;;;;;;4937005;29;20046;-67
2022/04/15 07:16:44;;;;;;;40.42;24.65;;;;;;;;;;4957135;29;20352;-66
2022/04/15 07:19:10;;;;;;;44.72;26.17;;;;;;;;;;4957422;29;20043;-66
2022/04/15 07:22:01;;;;;;;52.22;27.50;;;;;;;;;;4940161;29;20035;-65
2022/04/15 07:24:27;;;;;;;49.42;27.55;;;13.30;95.40;;;;;;4956786;29;20400;-68
2022/04/15 07:26:53;;;;;;;46.10;25.73;;;13.40;96.50;;;;;;4940011;29;20032;-65
2022/04/15 07:29:20;;;;;;;43.60;24.55;;;13.60;94.50;;;;;;4939869;29;20055;-68
2022/04/15 07:31:46;;;;;;;46.80;27.58;;;13.80;96.00;;;;;;4956992;29;20023;-70
2022/04/15 07:34:12;;;;;;;50.67;28.45;;;14.00;93.70;;;;;;4956830;29;20519;-71
2022/04/15 07:39:08;;;;;;;44.70;22.55;;;14.30;93.50;;;;;;4956762;29;20554;-70
2022/04/15 07:41:36;;;;;;;40.05;23.92;;;14.60;91.00;;;;;;4939223;29;20038;-69
2022/04/15 07:44:06;;;;;;;45.40;24.23;;;14.80;91.50;;;;;;4956682;29;20031;-68
2022/04/15 07:46:33;;;;;;;46.40;24.15;;;15.00;92.50;;;;;;4956538;28;20026;-69
2022/04/15 07:48:59;;;;;;;51.85;26.08;;;15.20;91.20;;;;;;4938629;29;20086;-69
2022/04/15 07:51:25;;;;;;;39.72;22.10;;;15.40;90.40;;;;;;4939217;29;20062;-68
2022/04/15 07:53:51;;;;;;;49.80;25.65;;;15.60;90.40;;;;;;4956441;29;20035;-69
2022/04/15 07:56:17;;;;;;;44.97;26.90;;;15.90;91.30;;;;;;4939245;29;20031;-69
2022/04/15 07:58:42;;;;;;;39.92;22.80;;;16.10;90.00;;;;;;4956498;29;20047;-66
2022/04/15 08:01:10;;;;;;;32.92;19.88;;;16.20;86.50;;;;;;4956182;29;20031;-69
2022/04/15 08:03:36;;;;;;;33.95;20.60;;;16.50;83.80;;;;;;4956142;29;20027;-65
2022/04/15 08:06:02;;;;;;;39.78;17.77;;;16.70;81.00;;;;;;4955887;29;20031;-65
2022/04/15 08:08:29;;;;;;;37.53;18.00;;;16.80;78.80;;;;;;4956393;29;20027;-64
2022/04/15 08:10:56;;;;;;;33.10;18.88;;;17.00;74.20;;;;;;4956234;29;20031;-64
2022/04/15 08:13:21;;;;;;;42.35;20.42;;;17.20;78.90;;;;;;4956270;29;20023;-64
2022/04/15 08:15:53;;;;;;;41.83;20.83;;;17.10;77.40;;;;;;4956087;29;20034;-66
2022/04/15 08:18:20;;;;;;;34.83;19.02;;;17.60;78.60;;;;;;4935288;29;20028;-65
2022/04/15 08:20:45;;;;;;;27.90;15.80;;;17.70;76.40;;;;;;4928382;29;20035;-66
2022/04/15 08:23:11;;;;;;;18.15;10.52;;;17.90;76.90;;;;;;4928368;29;20074;-65
2022/04/15 08:25:37;;;;;;;25.33;15.07;;;18.10;71.70;;;;;;4938332;29;20031;-65
2022/04/15 08:28:05;;;;;;;33.83;17.05;;;18.20;75.60;;;;;;4956152;29;20054;-65
2022/04/15 08:30:34;;;;;;;24.13;15.80;;;18.30;75.60;;;;;;4955932;29;20341;-65
2022/04/15 08:33:02;;;;;;;30.25;14.32;;;18.50;73.90;;;;;;4956184;29;20028;-67
2022/04/15 08:35:29;;;;;;;28.83;16.17;;;18.60;73.50;;;;;;4955856;29;20534;-67
2022/04/15 08:37:54;;;;;;;27.27;16.52;;;18.90;75.70;;;;;;4955725;29;20031;-66
2022/04/15 08:40:20;;;;;;;24.67;13.85;;;19.10;73.00;;;;;;4938409;29;20464;-65
2022/04/15 08:42:46;;;;;;;26.90;13.73;;;19.30;71.80;;;;;;4955645;29;20087;-67
2022/04/15 08:45:13;;;;;;;23.30;13.32;;;19.40;71.40;;;;;;4955341;29;20043;-66
2022/04/15 08:47:39;;;;;;;23.20;13.50;;;19.70;74.70;;;;;;4949084;29;20036;-64
2022/04/15 08:50:07;;;;;;;24.48;13.13;;;;;;;;;;4935785;29;20032;-64
2022/04/15 08:52:33;;;;;;;23.45;11.73;;;;;;;;;;4935875;29;20031;-65
2022/04/15 08:54:59;;;;;;;15.52;9.30;;;;;;;;;;4930145;29;20023;-65
2022/04/15 08:57:26;;;;;;;13.77;7.65;;;;;;;;;;4946069;29;20023;-65
2022/04/15 08:59:53;;;;;;;11.13;7.28;;;;;;;;;;4929641;29;20095;-66
2022/04/15 09:02:33;;;;;;;17.90;8.27;;;;;;;;;;4946962;29;20019;-65
2022/04/15 09:05:00;;;;;;;13.02;8.30;;;;;;;;;;4955283;29;20027;-65
2022/04/15 09:07:29;;;;;;;11.90;7.68;;;;;;;;;;4955435;29;20031;-65
2022/04/15 09:09:56;;;;;;;15.05;7.22;;;19.80;71.00;;;;;;4955203;29;20045;-65
2022/04/15 09:12:27;;;;;;;16.30;6.90;;;;;;;;;;4955044;29;20383;-65
2022/04/15 09:15:08;;;;;;;13.50;6.25;;;;;;;;;;4937738;29;20019;-65
2022/04/15 09:17:38;;;;;;;15.52;5.57;;;;;;;;;;4955081;29;20038;-65
2022/04/15 09:20:07;;;;;;;10.85;5.75;;;21.10;69.20;;;;;;4954847;29;20472;-65
2022/04/15 09:22:32;;;;;;;10.20;6.68;;;21.60;63.50;;;;;;4937456;29;20027;-65
2022/04/15 09:24:59;;;;;;;13.38;6.75;;;;;;;;;;4937588;29;20034;-65
2022/04/15 09:27:26;;;;;;;10.48;6.05;;;;;;;;;;4954014;29;20408;-65
2022/04/15 09:29:54;;;;;;;16.13;7.07;;;21.60;67.70;;;;;;4954998;29;20038;-65
2022/04/15 09:32:22;;;;;;;10.88;6.03;;;22.00;64.70;;;;;;4954746;29;20089;-64
2022/04/15 09:35:00;;;;;;;12.73;5.97;;;22.20;60.70;;;;;;4953136;29;20023;-67
2022/04/15 09:37:42;;;;;;;10.60;6.68;;;22.20;62.00;;;;;;4937020;29;20129;-65
2022/04/15 09:40:11;;;;;;;15.45;6.10;;;22.30;62.80;;;;;;4936896;29;20086;-66
2022/04/15 09:42:45;;;;;;;22.92;5.00;;;22.60;60.20;;;;;;4953550;29;20037;-65
2022/04/15 09:45:14;;;;;;;11.27;5.65;;;22.60;60.70;;;;;;4935957;29;20400;-65
2022/04/15 09:47:39;;;;;;;8.43;6.18;;;23.00;61.60;;;;;;4954202;29;20031;-65
2022/04/15 09:50:07;;;;;;;5.80;4.30;;;23.20;62.50;;;;;;4953602;29;20487;-65
2022/04/15 09:52:34;;;;;;;8.55;4.63;;;23.30;61.50;;;;;;4954505;29;20035;-65
2022/04/15 09:55:02;;;;;;;14.85;5.22;;;23.40;58.40;;;;;;4937415;29;20023;-65
2022/04/15 09:57:34;;;;;;;10.55;4.93;;;23.80;63.20;;;;;;4954162;29;20120;-65
2022/04/15 10:00:03;;;;;;;12.45;5.00;;;23.90;68.20;;;;;;4954648;29;20483;-65
2022/04/15 10:02:34;;;;;;;11.95;4.63;;;23.90;72.20;;;;;;4954549;29;20038;-65
2022/04/15 10:05:02;;;;;;;14.02;4.90;;;24.10;62.50;;;;;;4936815;29;20483;-65
2022/04/15 10:07:29;;;;;;;9.57;4.75;;;;;;;;;;4954527;29;20484;-65
2022/04/15 10:09:55;;;;;;;14.07;5.25;;;24.40;74.80;;;;;;4954620;28;20032;-65
2022/04/15 10:12:21;;;;;;;10.70;5.60;;;;;;;;;;4958084;29;20023;-65
2022/04/15 10:14:48;;;;;;;10.15;5.28;;;;;;;;;;4958434;29;20027;-65
2022/04/15 10:17:17;;;;;;;14.13;7.13;;;;;;;;;;4958053;29;20027;-66
2022/04/15 10:19:44;;;;;;;7.78;5.55;;;;;;;;;;4957754;29;20114;-66
2022/04/15 10:22:10;;;;;;;9.55;6.00;;;;;;;;;;4939989;29;20437;-66
2022/04/15 10:24:36;;;;;;;12.52;4.93;;;;;;;;;;4958019;29;20161;-66
2022/04/15 10:27:04;;;;;;;6.55;4.35;;;;;;;;;;4957977;29;20019;-66
2022/04/15 10:29:31;;;;;;;12.10;4.93;;;;;;;;;;4957973;29;20472;-65
2022/04/15 10:31:57;;;;;;;10.90;4.50;;;;;;;;;;4957641;29;20391;-66
2022/04/15 10:34:23;;;;;;;12.52;4.80;;;;;;;;;;4956612;29;20024;-66
2022/04/15 10:36:50;;;;;;;7.85;4.60;;;;;;;;;;4956508;29;20031;-66
2022/04/15 10:39:17;;;;;;;6.85;4.95;;;;;;;;;;4955866;29;20043;-67
2022/04/15 10:41:48;;;;;;;9.25;4.95;;;;;;;;;;4956266;29;20027;-67
2022/04/15 10:44:24;;;;;;;11.88;5.65;;;29.00;49.30;;;;;;4957723;29;20094;-66
2022/04/15 10:46:50;;;;;;;15.20;5.10;;;;;;;;;;4940731;29;20027;-66
2022/04/15 10:49:23;;;;;;;11.75;5.18;;;;;;;;;;4957836;29;20527;-67
2022/04/15 10:51:57;;;;;;;8.82;4.63;;;30.20;46.50;;;;;;4957887;29;20027;-67
2022/04/15 10:54:35;;;;;;;12.35;4.60;;;30.30;46.70;;;;;;4957876;29;20027;-67
2022/04/15 10:57:03;;;;;;;7.43;4.82;;;30.30;45.60;;;;;;4957734;29;20035;-67
2022/04/15 11:02:24;;;;;;;11.65;5.05;;;32.30;43.10;;;;;;4957374;29;20030;-68
2022/04/15 11:04:51;;;;;;;11.98;7.63;;;;;;;;;;4957564;29;20039;-66
2022/04/15 11:07:40;;;;;;;7.07;3.50;;;32.60;43.60;;;;;;4957410;29;20027;-66
2022/04/15 11:10:32;;;;;;;18.02;6.65;;;;;;;;;;4957242;29;20449;-67
2022/04/15 11:12:59;;;;;;;7.30;4.00;;;;;;;;;;4934872;29;20082;-67
2022/04/15 11:15:45;;;;;;;9.05;4.88;;;;;;;;;;4940067;29;20059;-67
2022/04/15 11:18:15;;;;;;;15.70;4.13;;;33.70;40.60;;;;;;4946818;29;20050;-68
2022/04/15 11:20:44;;;;;;;9.55;4.45;;;33.40;39.20;;;;;;4957179;29;20035;-68
2022/04/15 11:23:10;;;;;;;8.68;4.03;;;;;;;;;;4955777;28;20377;-67
2022/04/15 11:25:42;;;;;;;7.55;4.20;;;33.20;39.40;;;;;;4954814;29;20020;-67
2022/04/15 11:28:09;;;;;;;8.55;4.20;;;33.40;40.10;;;;;;4937279;29;20032;-67
2022/04/15 11:30:35;;;;;;;5.53;4.15;;;34.10;39.60;;;;;;4920304;29;20393;-65
2022/04/15 11:33:07;;;;;;;6.85;3.72;;;;;;;;;;4936008;29;20059;-66
2022/04/15 11:35:35;;;;;;;8.25;3.83;;;34.70;39.10;;;;;;4937761;29;20086;-66
2022/04/15 11:38:15;;;;;;;8.82;3.65;;;34.80;52.10;;;;;;4936983;29;20028;-67
2022/04/15 11:40:45;;;;;;;6.10;3.53;;;34.80;63.50;;;;;;4920484;29;20037;-68
2022/04/15 11:43:11;;;;;;;6.45;3.97;;;34.80;60.80;;;;;;4947403;29;20038;-69
2022/04/15 11:45:42;;;;;;;6.93;4.00;;;34.60;39.20;;;;;;4956702;29;20031;-66
2022/04/15 11:48:15;;;;;;;4.93;3.85;;;;;;;;;;4939017;29;20373;-67
2022/04/15 11:50:41;;;;;;;14.18;8.85;;;;;;;;;;4956731;29;20481;-68
2022/04/15 11:53:07;;;;;;;6.00;3.40;;;35.50;39.50;;;;;;4938485;29;20059;-65
2022/04/15 11:55:46;;;;;;;9.73;3.75;;;35.90;35.20;;;;;;4938299;29;20059;-66
2022/04/15 11:58:12;;;;;;;7.53;4.10;;;35.80;36.30;;;;;;4956176;29;20047;-68
2022/04/15 12:00:37;;;;;;;5.85;2.97;;;35.70;36.00;;;;;;4939215;29;20432;-67
2022/04/15 12:03:06;;;;;;;9.38;3.40;;;;;;;;;;4939300;29;20118;-68
2022/04/15 12:05:32;;;;;;;12.45;3.58;;;;;;;;;;4955615;29;20024;-68
2022/04/15 12:07:58;;;;;;;7.65;3.60;;;36.10;35.80;;;;;;4938726;29;20034;-68
2022/04/15 12:10:24;;;;;;;8.23;3.55;;;38.20;35.40;;;;;;4938668;29;20045;-69
2022/04/15 12:12:52;;;;;;;7.10;3.60;;;;;;;;;;4956189;29;20026;-68
2022/04/15 12:15:24;;;;;;;7.45;3.50;;;38.40;35.50;;;;;;4938849;29;20023;-69
2022/04/15 12:17:50;;;;;;;8.90;3.42;;;38.10;35.90;;;;;;4956456;29;20055;-69
2022/04/15 12:20:17;;;;;;;8.13;3.17;;;;;;;;;;4956246;29;20388;-68
2022/04/15 12:22:43;;;;;;;8.85;3.67;;;38.20;36.00;;;;;;4956151;29;20019;-68
2022/04/15 12:25:19;;;;;;;7.45;3.72;;;;;;;;;;4956134;29;20038;-69
2022/04/15 12:27:46;;;;;;;7.38;3.53;;;38.80;35.80;;;;;;4956339;29;20126;-68
2022/04/15 12:30:14;;;;;;;4.38;3.47;;;38.80;36.70;;;;;;4938791;29;20109;-69
2022/04/15 12:32:40;;;;;;;4.35;3.15;;;39.40;35.20;;;;;;4938585;29;20379;-68
2022/04/15 12:35:11;;;;;;;8.15;3.30;;;38.50;33.70;;;;;;4955135;28;20472;-68
2022/04/15 12:37:46;;;;;;;7.68;3.17;;;;;;;;;;4955909;29;20062;-68
2022/04/15 12:40:12;;;;;;;5.65;2.97;;;;;;;;;;4955467;29;20365;-68
2022/04/15 12:42:40;;;;;;;6.25;3.50;;;38.90;35.80;;;;;;4955690;29;20114;-69
2022/04/15 12:45:11;;;;;;;4.57;3.10;;;39.20;34.60;;;;;;4955691;29;20031;-69
2022/04/15 12:47:38;;;;;;;8.27;3.20;;;38.90;33.50;;;;;;4955783;29;20088;-69
2022/04/15 12:50:20;;;;;;;5.75;2.78;;;39.50;34.20;;;;;;4955702;29;20035;-69
2022/04/15 12:52:47;;;;;;;5.30;3.45;;;39.60;33.50;;;;;;4955505;29;20034;-69
2022/04/15 12:55:14;;;;;;;9.35;2.70;;;40.70;34.70;;;;;;4955426;29;20027;-69
2022/04/15 12:57:41;;;;;;;3.90;2.78;;;41.20;35.40;;;;;;4955203;29;20055;-68
2022/04/15 13:00:08;;;;;;;3.83;2.78;;;;;;;;;;4938057;29;20094;-68
2022/04/15 13:02:34;;;;;;;9.13;4.57;;;40.60;74.10;;;;;;4955444;29;20033;-69
2022/04/15 13:05:00;;;;;;;5.38;4.60;;;;;;;;;;4955424;29;20038;-66
2022/04/15 13:07:26;;;;;;;5.68;2.78;;;41.10;34.30;;;;;;4955375;29;20027;-67
2022/04/15 13:09:53;;;;;;;11.05;7.50;;;41.90;37.30;;;;;;4954918;29;20388;-67
2022/04/15 13:12:19;;;;;;;5.55;3.22;;;41.20;33.70;;;;;;4955236;29;20502;-67
2022/04/15 13:14:45;;;;;;;5.45;3.17;;;40.80;33.40;;;;;;4955217;29;20031;-67
2022/04/15 13:17:15;;;;;;;5.97;3.25;;;41.50;35.00;;;;;;4937707;29;20031;-68
2022/04/15 13:19:43;;;;;;;3.43;3.10;;;41.70;33.50;;;;;;4954969;29;20044;-67
2022/04/15 13:22:10;;;;;;;4.88;3.00;;;42.20;34.60;;;;;;4937834;29;20305;-66
2022/04/15 13:24:36;;;;;;;4.13;3.35;;;41.40;32.90;;;;;;4954756;29;20031;-67
2022/04/15 13:27:02;;;;;;;11.68;3.05;;;41.20;32.50;;;;;;4955066;29;20035;-67
2022/04/15 13:29:28;;;;;;;5.50;2.80;;;41.90;33.80;;;;;;4955057;29;20474;-68
2022/04/15 13:31:54;;;;;;;6.88;3.47;;;42.30;34.40;;;;;;4955019;29;20050;-67
2022/04/15 13:34:20;;;;;;;7.65;3.15;;;42.20;33.70;;;;;;4954865;29;20110;-67
2022/04/15 13:36:47;;;;;;;12.07;3.30;;;42.80;33.80;;;;;;4954975;29;20066;-68
2022/04/15 13:39:13;;;;;;;4.75;2.80;;;42.40;32.30;;;;;;4955076;29;20027;-67
2022/04/15 13:41:39;;;;;;;4.57;2.88;;;42.20;32.40;;;;;;4954627;29;20393;-67
2022/04/15 13:44:05;;;;;;;4.65;3.03;;;41.80;32.80;;;;;;4954862;29;20031;-67
2022/04/15 13:46:31;;;;;;;2.97;2.30;;;41.50;32.90;;;;;;4954090;29;20118;-67
2022/04/15 13:48:59;;;;;;;7.45;2.90;;;41.90;33.60;;;;;;4954896;29;20485;-68
2022/04/15 13:51:25;;;;;;;3.83;2.63;;;;;;;;;;4954918;29;20027;-67